Stations météo

réclame
Mon MeteoGroup
Oberstdorf, Allemagne (10948): Température de l'air & dewpoint: 12.02.2019 17:00:00 - 18.02.2019 17:00:00 (CET)Oberstdorf, Allemagne (10948): Température de l'air 5cm & Température de l'air -5cm: 12.02.2019 17:00:00 - 18.02.2019 17:00:00 (CET)Oberstdorf, Allemagne (10948): Température de l'air -20cm & Température de l'air -100cm: 12.02.2019 17:00:00 - 18.02.2019 17:00:00 (CET)Oberstdorf, Allemagne (10948): Vitesse du vent & gusts: 12.02.2019 17:00:00 - 18.02.2019 17:00:00 (CET)Oberstdorf, Allemagne (10948): Direction du vent: 12.02.2019 17:00:00 - 18.02.2019 17:00:00 (CET)Oberstdorf, Allemagne (10948): visibility: 12.02.2019 17:00:00 - 18.02.2019 17:00:00 (CET)Oberstdorf, Allemagne (10948): Ensoleillement: 12.02.2019 17:00:00 - 18.02.2019 17:00:00 (CET)Oberstdorf, Allemagne (10948): Quantités de précipitations: 12.02.2019 17:00:00 - 18.02.2019 17:00:00 (CET)
Date & Time tt [°C] td [°C] tt 5cm [°C] tt -5cm [°C] tt -20cm [°C] tt -100cm [°C] ff [km/h] ff [knt] fx [km/h] fx [knt] dd vv [km] sd [min] rr [mm]
18.02.2019 17:00:00 3,8 -3,0 0,0 0,6 0,9 2,3 13 7 16 9 SSE 70 51 0,0
18.02.2019 16:00:00 4,3 -4,1 0,0 0,6 0,9 2,3 4 2 7 4 S 53 60 0,0
18.02.2019 15:00:00 6,9 -6,9 0,0 0,6 0,9 2,3 3 1 5 3 SSW 70 60 0,0
18.02.2019 14:00:00 6,8 -6,5 0,0 0,6 0,9 2,3 2 1 4 2 W 70 60 0,0
18.02.2019 13:00:00 5,7 -4,2 0,0 0,6 0,9 2,3 0 0 4 2 N 70 60 0,0
18.02.2019 12:00:00 2,4 -3,8 0,0 0,6 0,9 2,3 0 0 4 2 N 70 60 0,0
18.02.2019 11:00:00 0,7 -5,8 0,0 0,6 0,9 2,3 0 0 9 5 N 37 60 0,0
18.02.2019 10:00:00 -0,8 -7,3 0,0 0,6 0,9 2,3 4 2 8 4 SSE 58 54 0,0
18.02.2019 09:00:00 -8,7 -10,2 0,0 0,6 0,9 2,3 3 2 7 4 SSE 48 0 0,0
18.02.2019 08:00:00 -6,6 -7,6 0,0 0,6 0,9 2,3 3 1 10 5 E 61 0 0,0
18.02.2019 07:00:00 -8,8 -10,4 0,0 0,6 0,9 2,3 3 1 7 4 SE 70 0 0,0
18.02.2019 06:00:00 -9,3 -11,2 0,0 0,6 0,9 2,3 4 2 8 5 SSE 70 0 0,0
18.02.2019 05:00:00 -8,3 -9,9 0,0 0,6 0,9 2,3 0 0 8 4 N 70 0 0,0
18.02.2019 04:00:00 -8,3 -10,2 0,0 0,6 0,9 2,3 3 2 7 4 SE 70 0 0,0
18.02.2019 03:00:00 -6,7 -8,1 0,0 0,6 0,9 2,3 2 1 5 3 SE 70 0 0,0
18.02.2019 02:00:00 -6,9 -9,6 0,0 0,6 0,9 2,3 3 1 8 4 SW 70 0 0,0
18.02.2019 01:00:00 -5,5 -7,3 0,0 0,6 0,9 2,3 5 3 9 5 S 70 0 0,0
18.02.2019 00:00:00 -6,8 -8,7 0,0 0,6 0,9 2,3 4 2 8 4 S 70 0 0,0
17.02.2019 23:00:00 -6,1 -8,6 0,0 0,6 0,9 2,3 5 3 9 5 S 70 0 0,0
17.02.2019 22:00:00 -4,2 -7,1 0,0 0,6 0,9 2,3 4 2 10 5 SSE 70 0 0,0
17.02.2019 21:00:00 -1,6 -6,3 0,0 0,6 0,9 2,3 7 4 11 6 SSE 70 0 0,0
17.02.2019 20:00:00 -1,6 -6,0 0,0 0,6 0,9 2,3 6 3 14 7 S 60 0 0,0
17.02.2019 19:00:00 1,1 -4,1 0,0 0,6 0,9 2,3 10 5 12 7 SSE 70 0 0,0
17.02.2019 18:00:00 2,5 -3,2 0,0 0,6 0,9 2,3 9 5 20 11 SSE 70 0 0,0
17.02.2019 17:00:00 6,0 -3,7 0,0 0,6 0,9 2,3 16 9 18 10 S 70 49 0,0
17.02.2019 16:00:00 5,5 -3,0 0,0 0,6 0,9 2,3 11 6 13 7 SSE 41 60 0,0
17.02.2019 15:00:00 6,0 -3,1 0,0 0,6 0,9 2,3 3 2 5 3 S 39 60 0,0
17.02.2019 14:00:00 4,8 -3,8 0,0 0,6 0,9 2,3 0 0 2 1 N 69 60 0,0
17.02.2019 13:00:00 5,9 -3,7 0,0 0,6 0,9 2,3 0 0 4 2 N 70 60 0,0
17.02.2019 12:00:00 3,1 -3,6 0,0 0,6 0,9 2,3 2 1 5 3 SE 36 60 0,0
17.02.2019 11:00:00 0,6 -6,0 0,0 0,6 0,9 2,3 3 2 9 5 SE 29 60 0,0
17.02.2019 10:00:00 0,4 -6,8 0,0 0,6 0,9 2,3 6 3 8 4 SSE 70 51 0,0
17.02.2019 09:00:00 -9,1 -10,5 0,0 0,6 0,9 2,3 3 2 9 5 SSE 70 0 0,0
17.02.2019 08:00:00 -10,0 -11,9 0,0 0,6 0,9 2,3 3 2 7 4 S 70 0 0,0
17.02.2019 07:00:00 -8,1 -9,4 0,0 0,6 0,9 2,3 3 2 9 5 SSE 70 0 0,0
17.02.2019 06:00:00 -8,8 -10,3 0,0 0,6 0,9 2,3 3 2 9 5 SSE 70 0 0,0
17.02.2019 05:00:00 -7,1 -7,5 0,0 0,6 0,9 2,3 3 1 8 5 S 70 0 0,0
17.02.2019 04:00:00 -8,5 -10,6 0,0 0,6 0,9 2,3 6 4 9 5 S 70 0 0,0
17.02.2019 03:00:00 -7,6 -9,6 0,0 0,6 0,9 2,3 6 3 10 5 S 70 0 0,0
17.02.2019 02:00:00 -6,1 -7,4 0,0 0,6 0,9 2,3 2 1 7 4 SE 67 0 0,0
17.02.2019 01:00:00 -7,8 -9,9 0,0 0,6 0,9 2,3 3 1 7 4 S 53 0 0,0
17.02.2019 00:00:00 -5,5 -6,6 0,0 0,6 0,9 2,3 4 2 8 4 SE 28 0 0,0
16.02.2019 23:00:00 -5,9 -7,3 0,0 0,6 0,9 2,3 2 1 6 4 SSE 19 0 0,0
16.02.2019 22:00:00 -3,9 -5,7 0,0 0,6 0,9 2,3 0 0 8 4 N 36 0 0,0
16.02.2019 21:00:00 -2,5 -4,4 0,0 0,6 0,9 2,3 0 0 8 4 N 21 0 0,0
16.02.2019 20:00:00 -1,0 -4,6 0,0 0,6 0,9 2,3 4 2 10 6 SSE 29 0 0,0
16.02.2019 19:00:00 1,4 -3,7 0,0 0,6 0,9 2,3 9 5 14 7 SSE 70 0 0,0
16.02.2019 18:00:00 3,7 -3,2 0,0 0,6 0,9 2,3 10 5 16 9 S 70 0 0,0
16.02.2019 17:00:00 3,6 -3,5 0,0 0,6 0,9 2,3 8 4 14 7 S 70 46 0,0
16.02.2019 16:00:00 8,7 -4,7 0,0 0,6 0,9 2,3 5 3 18 10 SSW 60 60 0,0
16.02.2019 15:00:00 11,5 -6,8 0,0 0,6 0,9 2,3 12 6 17 9 SE 44 60 0,0
16.02.2019 14:00:00 11,0 -7,0 0,0 0,6 0,9 2,3 4 2 20 11 ESE 68 60 0,0
16.02.2019 13:00:00 8,5 -5,5 0,0 0,6 0,9 2,3 11 6 19 10 SE 70 60 0,0
16.02.2019 12:00:00 5,3 -4,0 0,0 0,6 0,9 2,3 5 3 12 7 SSE 70 60 0,0
16.02.2019 11:00:00 1,9 -5,3 0,0 0,6 0,9 2,3 8 5 14 7 SSE 25 60 0,0
16.02.2019 10:00:00 -2,0 -8,0 0,0 0,6 0,9 2,3 9 5 12 6 SSE 27 50 0,0
16.02.2019 09:00:00 -6,8 -7,8 0,0 0,6 0,9 2,3 6 3 9 5 SSE 64 0 0,0
16.02.2019 08:00:00 -9,3 -10,4 0,0 0,6 0,9 2,3 3 1 9 5 SSE 45 0 0,0
16.02.2019 07:00:00 -8,7 -10,5 0,0 0,6 0,9 2,3 4 2 8 5 SSE 70 0 0,0
16.02.2019 06:00:00 -9,2 -10,2 0,0 0,6 0,9 2,3 3 2 11 6 SE 70 0 0,0
16.02.2019 05:00:00 -7,4 -7,8 0,0 0,6 0,9 2,3 3 2 8 4 ESE 70 0 0,0
16.02.2019 04:00:00 -9,0 -10,1 0,0 0,6 0,9 2,3 0 0 8 5 N 70 0 0,0
16.02.2019 03:00:00 -8,4 -9,1 0,0 0,6 0,9 2,3 2 1 9 5 SE 70 0 0,0
16.02.2019 02:00:00 -7,8 -9,2 0,0 0,6 0,9 2,3 6 4 13 7 SSE 70 0 0,0
16.02.2019 01:00:00 -6,7 -6,8 0,0 0,6 0,9 2,3 4 2 9 5 SSE 53 0 0,0
16.02.2019 00:00:00 -7,8 -8,8 0,0 0,6 0,9 2,3 4 2 9 5 SSE 38 0 0,0
15.02.2019 23:00:00 -5,7 -7,6 0,0 0,6 0,9 2,3 5 3 11 6 SSE 70 0 0,0
15.02.2019 22:00:00 -7,6 -10,1 0,0 0,6 0,9 2,3 3 2 12 7 S 70 0 0,0
15.02.2019 21:00:00 -4,7 -6,8 0,0 0,6 0,9 2,3 6 3 10 5 S 70 0 0,0
15.02.2019 20:00:00 -3,6 -5,3 0,0 0,6 0,9 2,3 4 2 9 5 SSE 56 0 0,0
15.02.2019 19:00:00 -2,5 -5,8 0,0 0,6 0,9 2,3 7 4 14 8 SSE 70 0 0,0
15.02.2019 18:00:00 1,2 -3,3 0,0 0,6 0,9 2,3 9 5 13 7 S 70 0 0,0
15.02.2019 17:00:00 4,0 -3,0 0,0 0,6 0,9 2,3 10 6 13 7 S 70 44 0,0
15.02.2019 16:00:00 2,5 -4,2 0,0 0,6 0,9 2,3 5 3 6 3 S 47 60 0,0
15.02.2019 15:00:00 5,8 -3,6 0,0 0,6 0,9 2,3 0 0 4 2 N 70 60 0,0
15.02.2019 14:00:00 3,5 -4,3 0,0 0,6 0,9 2,3 0 0 3 1 N 70 60 0,0
15.02.2019 13:00:00 3,4 -4,5 0,0 0,6 0,9 2,3 3 1 4 2 WNW 70 60 0,0
15.02.2019 12:00:00 3,4 -4,4 0,0 0,6 0,9 2,3 0 0 6 4 N 70 60 0,0
15.02.2019 11:00:00 -0,1 -6,0 0,0 0,6 0,9 2,3 7 4 9 5 SSE 31 60 0,0
15.02.2019 10:00:00 -2,1 -7,3 0,0 0,6 0,9 2,3 3 1 9 5 S 64 49 0,0
15.02.2019 09:00:00 -7,9 -9,1 0,0 0,6 0,9 2,3 4 2 8 5 SSE 69 0 0,0
15.02.2019 08:00:00 -9,1 -10,4 0,0 0,6 0,9 2,3 2 1 11 6 ESE 70 0 0,0
15.02.2019 07:00:00 -9,2 -10,0 0,0 0,6 0,9 2,3 4 2 9 5 SSE 58 0 0,0
15.02.2019 06:00:00 -8,8 -10,1 0,0 0,6 0,9 2,3 8 4 9 5 S 70 0 0,0
15.02.2019 05:00:00 -7,9 -8,8 0,0 0,6 0,9 2,3 2 1 10 5 NE 70 0 0,0
15.02.2019 04:00:00 -8,4 -9,6 0,0 0,6 0,9 2,3 7 4 9 5 S 70 0 0,0
15.02.2019 03:00:00 -7,9 -9,0 0,0 0,6 0,9 2,3 7 4 9 5 SSE 70 0 0,0
15.02.2019 02:00:00 -7,4 -8,2 0,0 0,6 0,9 2,3 4 2 9 5 SSE 70 0 0,0
15.02.2019 01:00:00 -6,7 -8,1 0,0 0,6 0,9 2,4 6 3 10 6 S 70 0 0,0
15.02.2019 00:00:00 -7,0 -8,7 0,0 0,6 0,9 2,4 5 3 10 6 SSE 70 0 0,0
14.02.2019 23:00:00 -5,9 -6,5 0,0 0,6 0,9 2,4 5 3 11 6 SSE 27 0 0,0
14.02.2019 22:00:00 -6,7 -7,8 0,0 0,6 0,9 2,4 6 3 10 6 S 5 0 0,0
14.02.2019 21:00:00 -4,6 -5,8 0,0 0,6 0,9 2,4 4 2 9 5 S 48 0 0,0
14.02.2019 20:00:00 -1,1 -2,4 0,0 0,6 0,9 2,4 6 3 14 7 SE 15 0 0,0
14.02.2019 19:00:00 -1,7 -3,5 0,0 0,6 0,9 2,4 5 3 15 8 S 70 0 0,0
14.02.2019 18:00:00 1,5 -1,3 0,0 0,6 0,9 2,4 10 5 14 8 S 70 0 0,0
14.02.2019 17:00:00 1,2 -1,8 0,0 0,6 0,9 2,4 13 7 14 8 SSE 70 43 0,0
14.02.2019 16:00:00 3,6 -1,2 0,0 0,6 0,9 2,4 7 4 8 5 S 38 60 0,0
14.02.2019 15:00:00 4,1 0,5 0,0 0,6 0,9 2,4 4 2 5 3 S 62 60 0,0
14.02.2019 14:00:00 6,1 -2,2 0,0 0,6 0,9 2,4 0 0 3 2 N 70 60 0,0
14.02.2019 13:00:00 3,1 -3,3 0,0 0,6 0,9 2,4 3 1 7 4 S 70 60 0,0
14.02.2019 12:00:00 0,3 -3,6 0,0 0,6 0,9 2,4 6 3 8 5 SSE 70 60 0,0
14.02.2019 11:00:00 -1,3 -3,5 0,0 0,6 0,9 2,4 5 3 10 5 SSE 35 60 0,0
14.02.2019 10:00:00 -3,7 -5,1 0,0 0,6 0,9 2,4 4 2 10 5 S 60 48 0,0
14.02.2019 09:00:00 -7,1 -7,8 0,0 0,6 0,9 2,4 2 1 8 4 NE 8 0 0,0
14.02.2019 08:00:00 -6,6 -6,6 0,0 0,6 0,9 2,4 2 1 9 5 ESE 17 0 0,0
14.02.2019 07:00:00 -5,6 -5,7 0,0 0,6 0,9 2,4 6 4 8 5 S 70 0 0,0
14.02.2019 06:00:00 -8,3 -9,2 0,0 0,6 0,9 2,4 5 3 10 5 SSE 38 0 0,0
14.02.2019 05:00:00 -8,9 -9,7 0,0 0,6 0,9 2,4 4 2 9 5 S 1,0 0 0,0
14.02.2019 04:00:00 -8,7 -9,3 0,0 0,6 0,9 2,4 3 2 10 6 E 0,4 0 0,0
14.02.2019 03:00:00 -8,2 -9,0 0,0 0,6 0,9 2,4 5 3 10 5 SSE 36 0 0,0
14.02.2019 02:00:00 -6,4 -7,0 0,0 0,6 0,9 2,4 4 2 10 6 SE 59 0 0,0
14.02.2019 01:00:00 -5,7 -6,2 0,0 0,6 0,9 2,4 6 3 8 5 S 56 0 0,0
14.02.2019 00:00:00 -5,1 -5,5 0,0 0,6 0,9 2,4 8 5 10 6 SSE 70 0 0,0
13.02.2019 23:00:00 -5,3 -6,1 0,0 0,6 0,9 2,4 8 4 15 8 S 62 0 0,0
13.02.2019 22:00:00 -6,6 -6,7 0,0 0,6 0,9 2,4 6 3 9 5 SSE 0,2 0 0,0
13.02.2019 21:00:00 -7,5 -8,3 0,0 0,6 0,9 2,4 3 2 14 8 S 0,2 0 0,0
13.02.2019 20:00:00 -3,8 -4,2 0,0 0,6 0,9 2,4 8 4 11 6 S 1,1 0 0,0
13.02.2019 19:00:00 -3,6 -3,8 0,0 0,6 0,9 2,4 5 3 8 5 S 52 0 0,0
13.02.2019 18:00:00 -1,4 -2,0 0,0 0,6 0,9 2,4 7 4 10 5 S 69 0 0,0
13.02.2019 17:00:00 -3,3 -5,3 0,0 0,6 0,9 2,4 5 3 8 4 S 52 41 0,0
13.02.2019 16:00:00 1,1 -3,0 0,0 0,6 0,9 2,4 3 2 6 3 S 37 60 0,0
13.02.2019 15:00:00 2,9 -4,8 0,0 0,6 0,9 2,4 2 1 5 3 W 70 60 0,0
13.02.2019 14:00:00 4,3 -7,3 0,0 0,6 0,9 2,4 3 2 4 2 NW 70 60 0,0
13.02.2019 13:00:00 1,6 -8,4 0,0 0,6 0,9 2,4 0 0 5 3 N 70 60 0,0
13.02.2019 12:00:00 -0,5 -6,9 0,0 0,6 0,9 2,4 3 2 7 4 SE 70 60 0,0
13.02.2019 11:00:00 -2,7 -7,4 0,0 0,6 0,9 2,4 5 3 13 7 SSE 22 59 0,0
13.02.2019 10:00:00 -6,9 -10,1 0,0 0,6 0,9 2,4 5 3 8 4 S 31 47 0,0
13.02.2019 09:00:00 -9,5 -10,3 0,0 0,6 0,9 2,4 7 4 10 5 SSE 57 0 0,0
13.02.2019 08:00:00 -8,7 -9,5 0,0 0,6 0,9 2,4 8 4 13 7 S 70 0 0,0
13.02.2019 07:00:00 -9,2 -9,9 0,0 0,6 0,9 2,4 7 4 11 6 SSE 42 0 0,0
13.02.2019 06:00:00 -11,5 -13,1 0,0 0,6 0,9 2,4 5 3 16 9 WNW 21 0 0,0
13.02.2019 05:00:00 -10,1 -10,5 0,0 0,6 0,9 2,4 4 2 10 6 SSE 2,4 0 0,0
13.02.2019 04:00:00 -8,0 -8,5 0,0 0,6 0,9 2,4 10 5 13 7 SSE 40 0 0,0
13.02.2019 03:00:00 -10,1 -11,3 0,0 0,6 0,9 2,4 3 1 14 8 S 7 0 0,0
13.02.2019 02:00:00 -7,7 -8,5 0,0 0,6 0,9 2,4 8 5 10 6 S 29 0 0,0
13.02.2019 01:00:00 -6,7 -7,4 0,0 0,6 0,9 2,4 8 4 11 6 SSE 29 0 0,0
13.02.2019 00:00:00 -6,1 -6,7 0,0 0,6 0,9 2,4 10 6 14 8 SSE 27 0 0,0
12.02.2019 23:00:00 -8,7 -9,9 0,0 0,6 0,9 2,4 4 2 10 6 SSE 11 0 0,0
12.02.2019 22:00:00 -6,5 -7,1 0,0 0,6 0,9 2,4 5 3 10 5 SE 18 0 0,0
12.02.2019 21:00:00 -2,3 -4,2 0,0 0,6 0,9 2,4 7 4 11 6 S 34 0 0,0
12.02.2019 20:00:00 -3,0 -4,6 0,0 0,6 0,9 2,4 7 4 11 6 S 27 0 0,0
12.02.2019 19:00:00 -5,6 -7,1 0,0 0,6 0,9 2,4 3 2 7 4 SSE 9 0 0,0
12.02.2019 18:00:00 -1,3 -2,8 0,0 0,6 0,9 2,4 3 2 8 4 SSW 21 0 0,0
12.02.2019 17:00:00 0,6 -3,6 0,0 0,6 0,9 2,4 6 3 8 5 N 43 0 0,0

tt = Température de l'air
td = dewpoint
tt 5cm = Température de l'air 5cm
tt -5cm = Température de l'air -5cm
tt -20cm = Température de l'air -20cm
tt -100cm = Température de l'air -100cm
ff = Vitesse du vent
fx = gusts
dd = Direction du vent
vv = visibility
sd = Ensoleillement
rr = Quantités de précipitations

stations d'obs. à proximité